sensor_id;sensor_type;location;lat;lon;timestamp;P1;durP1;ratioP1;P2;durP2;ratioP2
67278;SDS011;54193;53.746;10.058;2023-08-24T00:00:40;24.60;;;11.70;;
67278;SDS011;54193;53.746;10.058;2023-08-24T00:03:26;26.00;;;12.48;;
67278;SDS011;54193;53.746;10.058;2023-08-24T00:06:12;24.35;;;12.50;;
67278;SDS011;54193;53.746;10.058;2023-08-24T00:08:58;26.27;;;12.33;;
67278;SDS011;54193;53.746;10.058;2023-08-24T00:11:44;26.30;;;12.75;;
67278;SDS011;54193;53.746;10.058;2023-08-24T00:14:30;21.70;;;11.68;;
67278;SDS011;54193;53.746;10.058;2023-08-24T00:17:15;24.10;;;11.63;;
67278;SDS011;54193;53.746;10.058;2023-08-24T00:20:01;24.55;;;12.20;;
67278;SDS011;54193;53.746;10.058;2023-08-24T00:22:49;23.63;;;11.52;;
67278;SDS011;54193;53.746;10.058;2023-08-24T00:25:35;26.35;;;12.57;;
67278;SDS011;54193;53.746;10.058;2023-08-24T00:28:20;24.25;;;11.48;;
67278;SDS011;54193;53.746;10.058;2023-08-24T00:31:06;24.75;;;10.93;;
67278;SDS011;54193;53.746;10.058;2023-08-24T00:33:53;21.77;;;11.15;;
67278;SDS011;54193;53.746;10.058;2023-08-24T00:36:39;19.70;;;10.07;;
67278;SDS011;54193;53.746;10.058;2023-08-24T00:39:25;22.63;;;10.48;;
67278;SDS011;54193;53.746;10.058;2023-08-24T00:42:10;21.52;;;10.48;;
67278;SDS011;54193;53.746;10.058;2023-08-24T00:45:00;17.90;;;9.33;;
67278;SDS011;54193;53.746;10.058;2023-08-24T00:47:47;20.45;;;9.98;;
67278;SDS011;54193;53.746;10.058;2023-08-24T00:50:33;20.60;;;10.13;;
67278;SDS011;54193;53.746;10.058;2023-08-24T00:53:19;18.55;;;10.00;;
67278;SDS011;54193;53.746;10.058;2023-08-24T00:56:06;20.58;;;10.40;;
67278;SDS011;54193;53.746;10.058;2023-08-24T00:58:52;20.27;;;9.48;;
67278;SDS011;54193;53.746;10.058;2023-08-24T01:01:39;19.45;;;9.57;;
67278;SDS011;54193;53.746;10.058;2023-08-24T01:04:28;16.07;;;8.40;;
67278;SDS011;54193;53.746;10.058;2023-08-24T01:07:14;15.23;;;8.50;;
67278;SDS011;54193;53.746;10.058;2023-08-24T01:10:02;16.42;;;8.27;;
67278;SDS011;54193;53.746;10.058;2023-08-24T01:12:52;17.50;;;9.17;;
67278;SDS011;54193;53.746;10.058;2023-08-24T01:15:57;17.60;;;8.88;;
67278;SDS011;54193;53.746;10.058;2023-08-24T01:18:49;16.75;;;8.57;;
67278;SDS011;54193;53.746;10.058;2023-08-24T01:21:35;17.58;;;8.52;;
67278;SDS011;54193;53.746;10.058;2023-08-24T01:24:30;15.15;;;8.00;;
67278;SDS011;54193;53.746;10.058;2023-08-24T01:27:23;17.17;;;8.45;;
67278;SDS011;54193;53.746;10.058;2023-08-24T01:30:11;16.65;;;8.48;;
67278;SDS011;54193;53.746;10.058;2023-08-24T01:32:57;17.03;;;8.67;;
67278;SDS011;54193;53.746;10.058;2023-08-24T01:35:43;17.33;;;8.40;;
67278;SDS011;54193;53.746;10.058;2023-08-24T01:38:29;17.85;;;9.02;;
67278;SDS011;54193;53.746;10.058;2023-08-24T01:41:16;16.03;;;8.67;;
67278;SDS011;54193;53.746;10.058;2023-08-24T01:44:06;16.88;;;8.75;;
67278;SDS011;54193;53.746;10.058;2023-08-24T01:46:53;19.00;;;9.35;;
67278;SDS011;54193;53.746;10.058;2023-08-24T01:49:40;17.98;;;8.70;;
67278;SDS011;54193;53.746;10.058;2023-08-24T01:52:26;15.20;;;7.47;;
67278;SDS011;54193;53.746;10.058;2023-08-24T01:55:13;20.45;;;9.32;;
67278;SDS011;54193;53.746;10.058;2023-08-24T01:57:58;20.70;;;9.32;;
67278;SDS011;54193;53.746;10.058;2023-08-24T02:00:45;19.37;;;8.63;;
67278;SDS011;54193;53.746;10.058;2023-08-24T02:03:31;19.00;;;8.57;;
67278;SDS011;54193;53.746;10.058;2023-08-24T02:06:16;18.73;;;9.05;;
67278;SDS011;54193;53.746;10.058;2023-08-24T02:09:02;18.80;;;8.27;;
67278;SDS011;54193;53.746;10.058;2023-08-24T02:11:47;16.95;;;7.93;;
67278;SDS011;54193;53.746;10.058;2023-08-24T02:14:33;16.58;;;7.90;;
67278;SDS011;54193;53.746;10.058;2023-08-24T02:17:19;18.48;;;8.02;;
67278;SDS011;54193;53.746;10.058;2023-08-24T02:20:05;15.90;;;7.70;;
67278;SDS011;54193;53.746;10.058;2023-08-24T02:22:53;12.43;;;6.93;;
67278;SDS011;54193;53.746;10.058;2023-08-24T02:25:41;16.85;;;8.50;;
67278;SDS011;54193;53.746;10.058;2023-08-24T02:28:29;82.20;;;11.77;;
67278;SDS011;54193;53.746;10.058;2023-08-24T02:31:14;52.22;;;10.65;;
67278;SDS011;54193;53.746;10.058;2023-08-24T02:34:01;20.05;;;8.93;;
67278;SDS011;54193;53.746;10.058;2023-08-24T02:36:47;34.13;;;11.23;;
67278;SDS011;54193;53.746;10.058;2023-08-24T02:39:33;34.00;;;10.90;;
67278;SDS011;54193;53.746;10.058;2023-08-24T02:42:19;26.50;;;10.77;;
67278;SDS011;54193;53.746;10.058;2023-08-24T02:45:05;23.33;;;10.15;;
67278;SDS011;54193;53.746;10.058;2023-08-24T02:47:51;22.25;;;9.75;;
67278;SDS011;54193;53.746;10.058;2023-08-24T02:50:36;27.52;;;11.25;;
67278;SDS011;54193;53.746;10.058;2023-08-24T02:53:22;24.55;;;10.80;;
67278;SDS011;54193;53.746;10.058;2023-08-24T02:56:09;22.83;;;10.00;;
67278;SDS011;54193;53.746;10.058;2023-08-24T02:58:55;21.95;;;10.88;;
67278;SDS011;54193;53.746;10.058;2023-08-24T03:01:40;25.45;;;10.30;;
67278;SDS011;54193;53.746;10.058;2023-08-24T03:04:26;21.43;;;9.97;;
67278;SDS011;54193;53.746;10.058;2023-08-24T03:07:12;21.00;;;9.75;;
67278;SDS011;54193;53.746;10.058;2023-08-24T03:09:58;24.40;;;10.68;;
67278;SDS011;54193;53.746;10.058;2023-08-24T03:12:43;23.48;;;10.60;;
67278;SDS011;54193;53.746;10.058;2023-08-24T03:15:29;21.60;;;10.00;;
67278;SDS011;54193;53.746;10.058;2023-08-24T03:18:16;23.77;;;10.15;;
67278;SDS011;54193;53.746;10.058;2023-08-24T03:21:02;24.30;;;10.75;;
67278;SDS011;54193;53.746;10.058;2023-08-24T03:23:48;23.00;;;11.03;;
67278;SDS011;54193;53.746;10.058;2023-08-24T03:26:33;22.05;;;10.57;;
67278;SDS011;54193;53.746;10.058;2023-08-24T03:29:19;22.52;;;10.55;;
67278;SDS011;54193;53.746;10.058;2023-08-24T03:32:04;23.53;;;10.73;;
67278;SDS011;54193;53.746;10.058;2023-08-24T03:34:50;23.35;;;10.15;;
67278;SDS011;54193;53.746;10.058;2023-08-24T03:37:36;20.27;;;9.73;;
67278;SDS011;54193;53.746;10.058;2023-08-24T03:40:22;19.45;;;8.88;;
67278;SDS011;54193;53.746;10.058;2023-08-24T03:43:08;21.50;;;9.70;;
67278;SDS011;54193;53.746;10.058;2023-08-24T03:46:00;22.27;;;10.02;;
67278;SDS011;54193;53.746;10.058;2023-08-24T03:48:46;82.30;;;12.40;;
67278;SDS011;54193;53.746;10.058;2023-08-24T03:51:32;47.67;;;12.60;;
67278;SDS011;54193;53.746;10.058;2023-08-24T03:54:18;137.30;;;13.15;;
67278;SDS011;54193;53.746;10.058;2023-08-24T03:57:03;63.47;;;12.98;;
67278;SDS011;54193;53.746;10.058;2023-08-24T03:59:49;37.45;;;12.70;;
67278;SDS011;54193;53.746;10.058;2023-08-24T04:02:34;26.33;;;10.97;;
67278;SDS011;54193;53.746;10.058;2023-08-24T04:05:20;25.98;;;11.05;;
67278;SDS011;54193;53.746;10.058;2023-08-24T04:08:06;22.55;;;10.23;;
67278;SDS011;54193;53.746;10.058;2023-08-24T04:10:52;22.57;;;10.57;;
67278;SDS011;54193;53.746;10.058;2023-08-24T04:13:38;24.98;;;10.60;;
67278;SDS011;54193;53.746;10.058;2023-08-24T04:16:24;21.58;;;10.13;;
67278;SDS011;54193;53.746;10.058;2023-08-24T04:19:09;21.20;;;10.10;;
67278;SDS011;54193;53.746;10.058;2023-08-24T04:21:55;20.17;;;9.70;;
67278;SDS011;54193;53.746;10.058;2023-08-24T04:24:40;20.55;;;10.05;;
67278;SDS011;54193;53.746;10.058;2023-08-24T04:27:26;22.17;;;10.18;;
67278;SDS011;54193;53.746;10.058;2023-08-24T04:30:12;20.10;;;9.50;;
67278;SDS011;54193;53.746;10.058;2023-08-24T04:32:59;18.27;;;9.18;;
67278;SDS011;54193;53.746;10.058;2023-08-24T04:35:46;18.00;;;9.45;;
67278;SDS011;54193;53.746;10.058;2023-08-24T04:38:33;22.13;;;9.60;;
67278;SDS011;54193;53.746;10.058;2023-08-24T04:41:18;19.75;;;9.20;;
67278;SDS011;54193;53.746;10.058;2023-08-24T04:44:04;23.73;;;10.00;;
67278;SDS011;54193;53.746;10.058;2023-08-24T04:46:49;21.42;;;9.98;;
67278;SDS011;54193;53.746;10.058;2023-08-24T04:49:35;21.70;;;10.05;;
67278;SDS011;54193;53.746;10.058;2023-08-24T04:52:22;23.58;;;10.20;;
67278;SDS011;54193;53.746;10.058;2023-08-24T04:55:07;27.48;;;10.90;;
67278;SDS011;54193;53.746;10.058;2023-08-24T04:57:54;24.83;;;11.10;;
67278;SDS011;54193;53.746;10.058;2023-08-24T05:00:39;23.15;;;10.05;;
67278;SDS011;54193;53.746;10.058;2023-08-24T05:03:25;21.67;;;10.35;;
67278;SDS011;54193;53.746;10.058;2023-08-24T05:06:11;24.77;;;10.63;;
67278;SDS011;54193;53.746;10.058;2023-08-24T05:08:57;20.85;;;10.30;;
67278;SDS011;54193;53.746;10.058;2023-08-24T05:11:43;22.58;;;10.90;;
67278;SDS011;54193;53.746;10.058;2023-08-24T05:14:29;21.55;;;10.32;;
67278;SDS011;54193;53.746;10.058;2023-08-24T05:17:14;24.65;;;11.05;;
67278;SDS011;54193;53.746;10.058;2023-08-24T05:20:00;27.05;;;11.85;;
67278;SDS011;54193;53.746;10.058;2023-08-24T05:22:46;25.30;;;11.52;;
67278;SDS011;54193;53.746;10.058;2023-08-24T05:25:32;24.00;;;11.07;;
67278;SDS011;54193;53.746;10.058;2023-08-24T05:28:19;25.70;;;11.85;;
67278;SDS011;54193;53.746;10.058;2023-08-24T05:31:05;26.48;;;12.00;;
67278;SDS011;54193;53.746;10.058;2023-08-24T05:33:50;29.30;;;13.10;;
67278;SDS011;54193;53.746;10.058;2023-08-24T05:36:36;29.33;;;13.63;;
67278;SDS011;54193;53.746;10.058;2023-08-24T05:39:21;32.13;;;13.75;;
67278;SDS011;54193;53.746;10.058;2023-08-24T05:42:08;30.10;;;12.88;;
67278;SDS011;54193;53.746;10.058;2023-08-24T05:44:54;28.60;;;12.30;;
67278;SDS011;54193;53.746;10.058;2023-08-24T05:47:39;32.92;;;13.43;;
67278;SDS011;54193;53.746;10.058;2023-08-24T05:50:25;34.88;;;14.18;;
67278;SDS011;54193;53.746;10.058;2023-08-24T05:53:11;28.43;;;13.30;;
67278;SDS011;54193;53.746;10.058;2023-08-24T05:55:57;27.85;;;12.73;;
67278;SDS011;54193;53.746;10.058;2023-08-24T05:58:43;32.75;;;14.93;;
67278;SDS011;54193;53.746;10.058;2023-08-24T06:01:28;35.77;;;15.33;;
67278;SDS011;54193;53.746;10.058;2023-08-24T06:04:14;33.30;;;14.82;;
67278;SDS011;54193;53.746;10.058;2023-08-24T06:07:00;34.15;;;16.13;;
67278;SDS011;54193;53.746;10.058;2023-08-24T06:09:45;33.75;;;15.07;;
67278;SDS011;54193;53.746;10.058;2023-08-24T06:12:31;35.03;;;14.88;;
67278;SDS011;54193;53.746;10.058;2023-08-24T06:15:16;28.77;;;13.30;;
67278;SDS011;54193;53.746;10.058;2023-08-24T06:18:04;27.50;;;12.68;;
67278;SDS011;54193;53.746;10.058;2023-08-24T06:20:50;24.13;;;12.07;;
67278;SDS011;54193;53.746;10.058;2023-08-24T06:23:36;25.20;;;11.55;;
67278;SDS011;54193;53.746;10.058;2023-08-24T06:26:21;24.27;;;11.65;;
67278;SDS011;54193;53.746;10.058;2023-08-24T06:29:07;24.10;;;11.00;;
67278;SDS011;54193;53.746;10.058;2023-08-24T06:31:52;22.75;;;10.77;;
67278;SDS011;54193;53.746;10.058;2023-08-24T06:34:38;20.77;;;9.88;;
67278;SDS011;54193;53.746;10.058;2023-08-24T06:37:24;16.05;;;8.30;;
67278;SDS011;54193;53.746;10.058;2023-08-24T06:40:09;13.57;;;7.60;;
67278;SDS011;54193;53.746;10.058;2023-08-24T06:42:56;12.52;;;6.88;;
67278;SDS011;54193;53.746;10.058;2023-08-24T06:45:43;12.75;;;5.68;;
67278;SDS011;54193;53.746;10.058;2023-08-24T06:48:29;10.60;;;5.23;;
67278;SDS011;54193;53.746;10.058;2023-08-24T06:51:15;8.23;;;4.43;;
67278;SDS011;54193;53.746;10.058;2023-08-24T06:54:01;8.45;;;4.90;;
67278;SDS011;54193;53.746;10.058;2023-08-24T06:56:48;6.67;;;4.30;;
67278;SDS011;54193;53.746;10.058;2023-08-24T06:59:33;7.70;;;4.03;;
67278;SDS011;54193;53.746;10.058;2023-08-24T07:02:19;7.35;;;4.05;;
67278;SDS011;54193;53.746;10.058;2023-08-24T07:05:05;5.75;;;3.20;;
67278;SDS011;54193;53.746;10.058;2023-08-24T07:07:53;7.40;;;4.57;;
67278;SDS011;54193;53.746;10.058;2023-08-24T07:10:39;6.75;;;4.30;;
67278;SDS011;54193;53.746;10.058;2023-08-24T07:13:25;7.27;;;3.93;;
67278;SDS011;54193;53.746;10.058;2023-08-24T07:16:11;7.15;;;3.72;;
67278;SDS011;54193;53.746;10.058;2023-08-24T07:18:57;5.72;;;3.83;;
67278;SDS011;54193;53.746;10.058;2023-08-24T07:21:43;5.87;;;3.80;;
67278;SDS011;54193;53.746;10.058;2023-08-24T07:24:29;5.95;;;3.38;;
67278;SDS011;54193;53.746;10.058;2023-08-24T07:27:15;7.43;;;3.60;;
67278;SDS011;54193;53.746;10.058;2023-08-24T07:30:02;6.30;;;3.53;;
67278;SDS011;54193;53.746;10.058;2023-08-24T07:32:51;5.60;;;3.20;;
67278;SDS011;54193;53.746;10.058;2023-08-24T07:35:37;5.63;;;3.25;;
67278;SDS011;54193;53.746;10.058;2023-08-24T07:38:24;6.43;;;3.20;;
67278;SDS011;54193;53.746;10.058;2023-08-24T07:41:10;6.27;;;3.40;;
67278;SDS011;54193;53.746;10.058;2023-08-24T07:43:57;6.45;;;2.70;;
67278;SDS011;54193;53.746;10.058;2023-08-24T07:46:42;5.75;;;2.20;;
67278;SDS011;54193;53.746;10.058;2023-08-24T07:49:28;3.23;;;1.80;;
67278;SDS011;54193;53.746;10.058;2023-08-24T07:52:14;4.70;;;1.88;;
67278;SDS011;54193;53.746;10.058;2023-08-24T07:55:00;5.35;;;2.15;;
67278;SDS011;54193;53.746;10.058;2023-08-24T07:57:45;4.10;;;2.10;;
67278;SDS011;54193;53.746;10.058;2023-08-24T08:00:33;4.63;;;1.92;;
67278;SDS011;54193;53.746;10.058;2023-08-24T08:03:19;3.85;;;1.95;;
67278;SDS011;54193;53.746;10.058;2023-08-24T08:06:05;4.32;;;1.85;;
67278;SDS011;54193;53.746;10.058;2023-08-24T08:08:50;4.33;;;1.70;;
67278;SDS011;54193;53.746;10.058;2023-08-24T08:11:36;4.90;;;1.60;;
67278;SDS011;54193;53.746;10.058;2023-08-24T08:14:22;4.43;;;1.55;;
67278;SDS011;54193;53.746;10.058;2023-08-24T08:17:09;6.00;;;1.70;;
67278;SDS011;54193;53.746;10.058;2023-08-24T08:19:55;3.60;;;1.55;;
67278;SDS011;54193;53.746;10.058;2023-08-24T08:22:41;3.97;;;1.90;;
67278;SDS011;54193;53.746;10.058;2023-08-24T08:25:26;3.40;;;1.85;;
67278;SDS011;54193;53.746;10.058;2023-08-24T08:28:13;3.47;;;1.80;;
67278;SDS011;54193;53.746;10.058;2023-08-24T08:30:59;4.03;;;1.65;;
67278;SDS011;54193;53.746;10.058;2023-08-24T08:33:44;3.73;;;1.50;;
67278;SDS011;54193;53.746;10.058;2023-08-24T08:36:30;3.40;;;1.70;;
67278;SDS011;54193;53.746;10.058;2023-08-24T08:39:19;3.65;;;1.63;;
67278;SDS011;54193;53.746;10.058;2023-08-24T08:42:04;3.60;;;1.60;;
67278;SDS011;54193;53.746;10.058;2023-08-24T08:44:56;3.70;;;1.60;;
67278;SDS011;54193;53.746;10.058;2023-08-24T08:47:42;4.00;;;1.50;;
67278;SDS011;54193;53.746;10.058;2023-08-24T08:50:27;4.93;;;1.70;;
67278;SDS011;54193;53.746;10.058;2023-08-24T08:53:16;3.00;;;1.67;;
67278;SDS011;54193;53.746;10.058;2023-08-24T08:56:02;4.30;;;1.67;;
67278;SDS011;54193;53.746;10.058;2023-08-24T08:58:51;3.03;;;1.52;;
67278;SDS011;54193;53.746;10.058;2023-08-24T09:01:37;3.92;;;1.70;;
67278;SDS011;54193;53.746;10.058;2023-08-24T09:04:23;3.40;;;1.50;;
67278;SDS011;54193;53.746;10.058;2023-08-24T09:07:09;2.70;;;1.50;;
67278;SDS011;54193;53.746;10.058;2023-08-24T09:09:56;3.80;;;1.80;;
67278;SDS011;54193;53.746;10.058;2023-08-24T09:12:42;3.63;;;1.77;;
67278;SDS011;54193;53.746;10.058;2023-08-24T09:15:31;3.22;;;1.60;;
67278;SDS011;54193;53.746;10.058;2023-08-24T09:18:20;3.87;;;1.70;;
67278;SDS011;54193;53.746;10.058;2023-08-24T09:21:07;3.55;;;1.50;;
67278;SDS011;54193;53.746;10.058;2023-08-24T09:23:55;3.65;;;1.70;;
67278;SDS011;54193;53.746;10.058;2023-08-24T09:26:41;3.33;;;1.50;;
67278;SDS011;54193;53.746;10.058;2023-08-24T09:29:29;3.13;;;1.58;;
67278;SDS011;54193;53.746;10.058;2023-08-24T09:32:22;4.88;;;1.75;;
67278;SDS011;54193;53.746;10.058;2023-08-24T09:35:14;4.15;;;1.80;;
67278;SDS011;54193;53.746;10.058;2023-08-24T09:38:15;3.20;;;1.70;;
67278;SDS011;54193;53.746;10.058;2023-08-24T09:41:04;4.32;;;1.80;;
67278;SDS011;54193;53.746;10.058;2023-08-24T09:43:50;3.38;;;1.63;;
67278;SDS011;54193;53.746;10.058;2023-08-24T09:46:36;3.37;;;1.60;;
67278;SDS011;54193;53.746;10.058;2023-08-24T09:49:25;4.75;;;1.75;;
67278;SDS011;54193;53.746;10.058;2023-08-24T09:52:13;4.28;;;1.80;;
67278;SDS011;54193;53.746;10.058;2023-08-24T09:55:02;3.35;;;1.80;;
67278;SDS011;54193;53.746;10.058;2023-08-24T09:57:52;3.20;;;2.00;;
67278;SDS011;54193;53.746;10.058;2023-08-24T10:00:40;4.25;;;2.10;;
67278;SDS011;54193;53.746;10.058;2023-08-24T10:03:27;6.03;;;2.60;;
67278;SDS011;54193;53.746;10.058;2023-08-24T10:06:16;5.07;;;2.37;;
67278;SDS011;54193;53.746;10.058;2023-08-24T10:09:06;4.28;;;2.15;;
67278;SDS011;54193;53.746;10.058;2023-08-24T10:11:55;5.10;;;2.70;;
67278;SDS011;54193;53.746;10.058;2023-08-24T10:14:53;5.53;;;3.00;;
67278;SDS011;54193;53.746;10.058;2023-08-24T10:17:44;5.53;;;3.10;;
67278;SDS011;54193;53.746;10.058;2023-08-24T10:20:31;5.80;;;2.90;;
67278;SDS011;54193;53.746;10.058;2023-08-24T10:23:17;4.35;;;2.70;;
67278;SDS011;54193;53.746;10.058;2023-08-24T10:26:05;5.35;;;2.80;;
67278;SDS011;54193;53.746;10.058;2023-08-24T10:28:52;6.53;;;3.05;;
67278;SDS011;54193;53.746;10.058;2023-08-24T10:31:39;6.85;;;3.17;;
67278;SDS011;54193;53.746;10.058;2023-08-24T10:34:26;4.63;;;3.20;;
67278;SDS011;54193;53.746;10.058;2023-08-24T10:37:12;6.45;;;3.92;;
67278;SDS011;54193;53.746;10.058;2023-08-24T10:39:58;8.07;;;4.70;;
67278;SDS011;54193;53.746;10.058;2023-08-24T10:42:44;7.93;;;4.00;;
67278;SDS011;54193;53.746;10.058;2023-08-24T10:51:27;7.05;;;4.30;;
67278;SDS011;54193;53.746;10.058;2023-08-24T10:54:14;9.35;;;3.83;;
67278;SDS011;54193;53.746;10.058;2023-08-24T10:57:00;7.50;;;4.07;;
67278;SDS011;54193;53.746;10.058;2023-08-24T11:00:07;6.97;;;4.45;;
67278;SDS011;54193;53.746;10.058;2023-08-24T11:02:56;8.60;;;4.10;;
67278;SDS011;54193;53.746;10.058;2023-08-24T11:05:43;7.60;;;4.95;;
67278;SDS011;54193;53.746;10.058;2023-08-24T11:08:43;8.35;;;4.40;;
67278;SDS011;54193;53.746;10.058;2023-08-24T11:11:30;7.23;;;4.50;;
67278;SDS011;54193;53.746;10.058;2023-08-24T11:14:16;9.57;;;4.30;;
67278;SDS011;54193;53.746;10.058;2023-08-24T11:17:22;7.25;;;4.10;;
67278;SDS011;54193;53.746;10.058;2023-08-24T11:20:08;8.10;;;4.18;;
67278;SDS011;54193;53.746;10.058;2023-08-24T11:22:55;8.07;;;3.95;;
67278;SDS011;54193;53.746;10.058;2023-08-24T11:25:41;8.73;;;4.40;;
67278;SDS011;54193;53.746;10.058;2023-08-24T11:28:28;9.30;;;4.30;;
67278;SDS011;54193;53.746;10.058;2023-08-24T11:31:14;8.02;;;4.15;;
67278;SDS011;54193;53.746;10.058;2023-08-24T11:34:01;7.15;;;4.00;;
67278;SDS011;54193;53.746;10.058;2023-08-24T11:36:48;9.32;;;3.67;;
67278;SDS011;54193;53.746;10.058;2023-08-24T11:39:34;6.45;;;3.95;;
67278;SDS011;54193;53.746;10.058;2023-08-24T11:42:21;7.60;;;4.37;;
67278;SDS011;54193;53.746;10.058;2023-08-24T11:45:11;7.90;;;4.10;;
67278;SDS011;54193;53.746;10.058;2023-08-24T11:48:00;8.82;;;3.97;;
67278;SDS011;54193;53.746;10.058;2023-08-24T11:50:49;7.78;;;4.00;;
67278;SDS011;54193;53.746;10.058;2023-08-24T11:53:36;7.35;;;3.70;;
67278;SDS011;54193;53.746;10.058;2023-08-24T11:56:22;6.88;;;3.63;;
67278;SDS011;54193;53.746;10.058;2023-08-24T11:59:10;7.45;;;4.13;;
67278;SDS011;54193;53.746;10.058;2023-08-24T12:01:58;6.90;;;4.30;;
67278;SDS011;54193;53.746;10.058;2023-08-24T12:04:44;8.83;;;4.53;;
67278;SDS011;54193;53.746;10.058;2023-08-24T12:07:33;11.70;;;5.20;;
67278;SDS011;54193;53.746;10.058;2023-08-24T12:10:20;9.70;;;4.50;;
67278;SDS011;54193;53.746;10.058;2023-08-24T12:13:06;7.70;;;4.30;;
67278;SDS011;54193;53.746;10.058;2023-08-24T12:15:52;7.75;;;4.22;;
67278;SDS011;54193;53.746;10.058;2023-08-24T12:18:54;10.07;;;5.22;;
67278;SDS011;54193;53.746;10.058;2023-08-24T12:21:43;10.13;;;5.45;;
67278;SDS011;54193;53.746;10.058;2023-08-24T12:24:29;7.22;;;4.50;;
67278;SDS011;54193;53.746;10.058;2023-08-24T12:27:25;6.72;;;4.60;;
67278;SDS011;54193;53.746;10.058;2023-08-24T12:30:11;8.18;;;4.57;;
67278;SDS011;54193;53.746;10.058;2023-08-24T12:32:57;6.60;;;4.27;;
67278;SDS011;54193;53.746;10.058;2023-08-24T12:35:43;7.88;;;4.88;;
67278;SDS011;54193;53.746;10.058;2023-08-24T12:38:28;7.32;;;4.38;;
67278;SDS011;54193;53.746;10.058;2023-08-24T12:41:14;6.37;;;3.63;;
67278;SDS011;54193;53.746;10.058;2023-08-24T12:44:00;6.43;;;3.90;;
67278;SDS011;54193;53.746;10.058;2023-08-24T12:46:50;9.55;;;3.85;;
67278;SDS011;54193;53.746;10.058;2023-08-24T12:49:35;6.85;;;3.63;;
67278;SDS011;54193;53.746;10.058;2023-08-24T12:52:22;7.65;;;3.60;;
67278;SDS011;54193;53.746;10.058;2023-08-24T12:55:07;6.85;;;3.80;;
67278;SDS011;54193;53.746;10.058;2023-08-24T12:57:54;6.32;;;3.70;;
67278;SDS011;54193;53.746;10.058;2023-08-24T13:00:40;6.97;;;4.00;;
67278;SDS011;54193;53.746;10.058;2023-08-24T13:03:25;6.45;;;4.38;;
67278;SDS011;54193;53.746;10.058;2023-08-24T13:06:11;7.90;;;4.63;;
67278;SDS011;54193;53.746;10.058;2023-08-24T13:08:57;6.70;;;4.37;;
67278;SDS011;54193;53.746;10.058;2023-08-24T13:11:42;8.82;;;5.57;;
67278;SDS011;54193;53.746;10.058;2023-08-24T13:14:28;7.20;;;4.70;;
67278;SDS011;54193;53.746;10.058;2023-08-24T13:17:14;7.25;;;5.10;;
67278;SDS011;54193;53.746;10.058;2023-08-24T13:19:59;10.63;;;5.18;;
67278;SDS011;54193;53.746;10.058;2023-08-24T13:22:45;6.90;;;4.78;;
67278;SDS011;54193;53.746;10.058;2023-08-24T13:25:30;8.45;;;4.20;;
67278;SDS011;54193;53.746;10.058;2023-08-24T13:28:17;6.43;;;4.00;;
67278;SDS011;54193;53.746;10.058;2023-08-24T13:31:02;8.63;;;4.50;;
67278;SDS011;54193;53.746;10.058;2023-08-24T13:33:48;6.20;;;3.80;;
67278;SDS011;54193;53.746;10.058;2023-08-24T13:36:34;5.07;;;3.27;;
67278;SDS011;54193;53.746;10.058;2023-08-24T13:39:19;6.30;;;3.28;;
67278;SDS011;54193;53.746;10.058;2023-08-24T13:42:05;6.45;;;3.80;;
67278;SDS011;54193;53.746;10.058;2023-08-24T13:44:51;5.40;;;3.63;;
67278;SDS011;54193;53.746;10.058;2023-08-24T13:47:36;6.68;;;3.90;;
67278;SDS011;54193;53.746;10.058;2023-08-24T13:50:22;4.85;;;3.53;;
67278;SDS011;54193;53.746;10.058;2023-08-24T13:53:07;8.20;;;4.30;;
67278;SDS011;54193;53.746;10.058;2023-08-24T13:55:53;7.40;;;3.60;;
67278;SDS011;54193;53.746;10.058;2023-08-24T13:58:39;5.68;;;3.78;;
67278;SDS011;54193;53.746;10.058;2023-08-24T14:01:24;5.53;;;3.03;;
67278;SDS011;54193;53.746;10.058;2023-08-24T14:04:10;4.53;;;2.90;;
67278;SDS011;54193;53.746;10.058;2023-08-24T14:06:56;6.10;;;2.63;;
67278;SDS011;54193;53.746;10.058;2023-08-24T14:09:42;4.00;;;1.65;;
67278;SDS011;54193;53.746;10.058;2023-08-24T14:12:27;4.80;;;3.28;;
67278;SDS011;54193;53.746;10.058;2023-08-24T14:15:13;6.05;;;3.17;;
67278;SDS011;54193;53.746;10.058;2023-08-24T14:17:59;6.97;;;3.05;;
67278;SDS011;54193;53.746;10.058;2023-08-24T14:20:44;5.50;;;2.90;;
67278;SDS011;54193;53.746;10.058;2023-08-24T14:23:30;4.77;;;2.80;;
67278;SDS011;54193;53.746;10.058;2023-08-24T14:26:16;5.35;;;3.17;;
67278;SDS011;54193;53.746;10.058;2023-08-24T14:29:03;5.60;;;3.30;;
67278;SDS011;54193;53.746;10.058;2023-08-24T14:31:48;5.77;;;3.30;;
67278;SDS011;54193;53.746;10.058;2023-08-24T14:34:34;7.07;;;3.17;;
67278;SDS011;54193;53.746;10.058;2023-08-24T14:37:20;5.63;;;2.85;;
67278;SDS011;54193;53.746;10.058;2023-08-24T14:40:05;7.28;;;3.20;;
67278;SDS011;54193;53.746;10.058;2023-08-24T14:42:51;5.28;;;3.03;;
67278;SDS011;54193;53.746;10.058;2023-08-24T14:45:37;6.05;;;3.30;;
67278;SDS011;54193;53.746;10.058;2023-08-24T14:48:23;5.70;;;3.03;;
67278;SDS011;54193;53.746;10.058;2023-08-24T14:51:08;4.40;;;2.80;;
67278;SDS011;54193;53.746;10.058;2023-08-24T14:53:54;5.50;;;3.10;;
67278;SDS011;54193;53.746;10.058;2023-08-24T14:56:40;6.10;;;3.50;;
67278;SDS011;54193;53.746;10.058;2023-08-24T14:59:25;6.30;;;3.00;;
67278;SDS011;54193;53.746;10.058;2023-08-24T15:02:11;5.00;;;2.63;;
67278;SDS011;54193;53.746;10.058;2023-08-24T15:04:57;6.82;;;3.13;;
67278;SDS011;54193;53.746;10.058;2023-08-24T15:07:42;5.40;;;3.05;;
67278;SDS011;54193;53.746;10.058;2023-08-24T15:10:28;5.97;;;3.00;;
67278;SDS011;54193;53.746;10.058;2023-08-24T15:13:14;9.38;;;3.17;;
67278;SDS011;54193;53.746;10.058;2023-08-24T15:15:59;7.63;;;3.20;;
67278;SDS011;54193;53.746;10.058;2023-08-24T15:18:45;6.93;;;3.10;;
67278;SDS011;54193;53.746;10.058;2023-08-24T15:21:31;5.78;;;3.03;;
67278;SDS011;54193;53.746;10.058;2023-08-24T15:24:16;6.15;;;2.75;;
67278;SDS011;54193;53.746;10.058;2023-08-24T15:27:02;5.80;;;2.83;;
67278;SDS011;54193;53.746;10.058;2023-08-24T15:29:47;5.65;;;2.78;;
67278;SDS011;54193;53.746;10.058;2023-08-24T15:32:33;7.15;;;3.05;;
67278;SDS011;54193;53.746;10.058;2023-08-24T15:35:19;5.38;;;3.00;;
67278;SDS011;54193;53.746;10.058;2023-08-24T15:38:04;5.43;;;3.00;;
67278;SDS011;54193;53.746;10.058;2023-08-24T15:40:51;5.57;;;3.22;;
67278;SDS011;54193;53.746;10.058;2023-08-24T15:43:39;5.05;;;3.10;;
67278;SDS011;54193;53.746;10.058;2023-08-24T15:46:24;7.33;;;2.90;;
67278;SDS011;54193;53.746;10.058;2023-08-24T15:49:10;5.57;;;3.13;;
67278;SDS011;54193;53.746;10.058;2023-08-24T15:51:56;6.03;;;2.97;;
67278;SDS011;54193;53.746;10.058;2023-08-24T15:54:41;6.57;;;2.80;;
67278;SDS011;54193;53.746;10.058;2023-08-24T15:57:27;5.03;;;2.88;;
67278;SDS011;54193;53.746;10.058;2023-08-24T16:00:13;7.13;;;3.00;;
67278;SDS011;54193;53.746;10.058;2023-08-24T16:02:59;4.97;;;3.08;;
67278;SDS011;54193;53.746;10.058;2023-08-24T16:05:44;7.60;;;2.95;;
67278;SDS011;54193;53.746;10.058;2023-08-24T16:08:30;5.97;;;3.13;;
67278;SDS011;54193;53.746;10.058;2023-08-24T16:11:16;5.45;;;2.80;;
67278;SDS011;54193;53.746;10.058;2023-08-24T16:14:02;5.90;;;3.03;;
67278;SDS011;54193;53.746;10.058;2023-08-24T16:16:51;10.00;;;3.53;;
67278;SDS011;54193;53.746;10.058;2023-08-24T16:19:37;4.72;;;3.10;;
67278;SDS011;54193;53.746;10.058;2023-08-24T16:22:23;10.20;;;3.03;;
67278;SDS011;54193;53.746;10.058;2023-08-24T16:25:09;11.52;;;3.92;;